^^
Station Historical Data
Daily Summary for May 19, 2019 Units:  English    Metric   Both
« Previous Day
Next Day »
Daily Weekly Monthly Yearly Custom
  High: Low: Average:
Temperature: 49.5 °F 37.2 °F 43.3 °F
Dew Point: 36.7 °F 30.9 °F 34.8 °F
Humidity: 91% 50% 73%
Wind Speed: 21mph 0mph 9.1mph
Wind Gust: 22mph - -
Wind- - SE
Pressure: 30.05 in 29.94 in -
Precipitation: 0.17 in    
Historical Graphs
 
 
Tabular Data for May 19, 2019
Time Temperature Dew Point Pressure Wind Wind Speed Wind Gust Humidity Rainfall Rate (Hourly) solar Conditions
00:04 40 °F 36.2 °F 29.96 in NE 11 mph 22 mph 86% 0.01 in 0.00 W/m2
00:09 39.9 °F 36.1 °F 29.96 in NE 15 mph 22 mph 86% 0.01 in 0.00 W/m2
00:14 39.7 °F 35.9 °F 29.96 in ENE 9 mph 21 mph 86% 0.02 in 0.00 W/m2
00:19 39.1 °F 35.3 °F 29.96 in NE 20 mph 21 mph 86% 0.03 in 0.00 W/m2
00:24 38.5 °F 35.3 °F 29.96 in ENE 16 mph 20 mph 88% 0.04 in 0.00 W/m2
00:29 38.3 °F 35.1 °F 29.96 in NE 14 mph 20 mph 88% 0.05 in 0.00 W/m2
00:34 38.2 °F 35.2 °F 29.96 in NE 13 mph 22 mph 89% 0.06 in 0.00 W/m2
00:39 38.1 °F 35.1 °F 29.96 in NE 17 mph 22 mph 89% 0.07 in 0.00 W/m2
00:44 38 °F 35 °F 29.96 in NE 10 mph 22 mph 89% 0.08 in 0.00 W/m2
00:49 38 °F 35 °F 29.96 in NE 10 mph 22 mph 89% 0.09 in 0.00 W/m2
00:54 37.9 °F 34.9 °F 29.96 in NE 9 mph 15 mph 89% 0.09 in 0.00 W/m2
00:59 38 °F 35.3 °F 29.96 in NNE 9 mph 15 mph 90% 0.08 in 0.00 W/m2
01:04 38 °F 35.3 °F 29.95 in NNE 15 mph 15 mph 90% 0.09 in 0.00 W/m2
01:09 38.1 °F 35.4 °F 29.96 in NE 11 mph 19 mph 90% 0.09 in 0.00 W/m2
01:14 38.3 °F 35.3 °F 29.96 in NNE 8 mph 21 mph 89% 0.08 in 0.00 W/m2
01:19 38.1 °F 35.1 °F 29.96 in NE 12 mph 21 mph 89% 0.09 in 0.00 W/m2
01:24 38.2 °F 35.2 °F 29.96 in NE 7 mph 21 mph 89% 0.09 in 0.00 W/m2
01:29 38.2 °F 35.2 °F 29.96 in NE 14 mph 21 mph 89% 0.08 in 0.00 W/m2
01:34 38.3 °F 35.6 °F 29.96 in NE 21 mph 21 mph 90% 0.07 in 0.00 W/m2
01:39 38.2 °F 35.2 °F 29.96 in NE 13 mph 22 mph 89% 0.07 in 0.00 W/m2
01:44 38 °F 35 °F 29.96 in NE 12 mph 22 mph 89% 0.07 in 0.00 W/m2
01:49 37.9 °F 34.9 °F 29.95 in NE 11 mph 18 mph 89% 0.06 in 0.00 W/m2
01:54 38 °F 35 °F 29.95 in NE 16 mph 18 mph 89% 0.06 in 0.00 W/m2
01:59 38.2 °F 35.2 °F 29.95 in NE 12 mph 21 mph 89% 0.05 in 0.00 W/m2
02:04 38.4 °F 35.4 °F 29.95 in NE 11 mph 21 mph 89% 0.05 in 0.00 W/m2
02:09 38.8 °F 35.6 °F 29.95 in NE 10 mph 21 mph 88% 0.04 in 0.00 W/m2
02:14 39 °F 35.5 °F 29.95 in NE 9 mph 21 mph 87% 0.03 in 0.00 W/m2
02:19 39 °F 35.5 °F 29.94 in NE 13 mph 18 mph 87% 0.03 in 0.00 W/m2
02:24 38.9 °F 35.4 °F 29.94 in NE 10 mph 18 mph 87% 0.02 in 0.00 W/m2
02:29 38.8 °F 35.3 °F 29.94 in NE 12 mph 18 mph 87% 0.02 in 0.00 W/m2
02:34 38.8 °F 35.6 °F 29.95 in ENE 11 mph 18 mph 88% 0.01 in 0.00 W/m2
02:39 38.6 °F 35.4 °F 29.95 in ENE 11 mph 18 mph 88% 0.01 in 0.00 W/m2
02:44 38.3 °F 35.3 °F 29.94 in ENE 12 mph 18 mph 89% 0.01 in 0.00 W/m2
02:49 38.1 °F 35.1 °F 29.95 in NE 11 mph 18 mph 89% 0.01 in 0.00 W/m2
02:54 38.1 °F 35.1 °F 29.95 in NE 10 mph 17 mph 89% 0.01 in 0.00 W/m2
02:59 38.2 °F 35.5 °F 29.95 in NE 10 mph 17 mph 90% 0.02 in 0.00 W/m2
03:04 38.2 °F 35.5 °F 29.94 in NNE 6 mph 17 mph 90% 0.02 in 0.00 W/m2
03:09 38.1 °F 35.4 °F 29.94 in NE 12 mph 17 mph 90% 0.02 in 0.00 W/m2
03:14 38 °F 35 °F 29.94 in NE 12 mph 17 mph 89% 0.02 in 0.00 W/m2
03:19 37.9 °F 34.9 °F 29.94 in NNE 8 mph 17 mph 89% 0.02 in 0.00 W/m2
03:24 37.9 °F 34.9 °F 29.94 in NE 13 mph 17 mph 89% 0.02 in 0.00 W/m2
03:29 37.9 °F 35.2 °F 29.94 in NNE 9 mph 17 mph 90% 0.03 in 0.00 W/m2
03:34 37.9 °F 35.2 °F 29.94 in NE 10 mph 16 mph 90% 0.03 in 0.00 W/m2
03:39 37.8 °F 35.1 °F 29.94 in ENE 9 mph 16 mph 90% 0.03 in 0.00 W/m2
03:44 37.7 °F 35 °F 29.94 in NNE 12 mph 19 mph 90% 0.02 in 0.00 W/m2
03:49 37.6 °F 34.9 °F 29.94 in NNE 8 mph 19 mph 90% 0.02 in 0.00 W/m2
03:54 37.5 °F 34.8 °F 29.94 in NNE 12 mph 19 mph 90% 0.02 in 0.00 W/m2
03:59 37.5 °F 34.8 °F 29.94 in NNE 9 mph 17 mph 90% 0.01 in 0.00 W/m2
04:04 37.4 °F 34.7 °F 29.94 in NNE 12 mph 17 mph 90% 0.01 in 0.00 W/m2
04:09 37.4 °F 34.7 °F 29.94 in NNE 13 mph 17 mph 90% 0.01 in 0.00 W/m2
04:14 37.4 °F 35 °F 29.94 in NNE 11 mph 16 mph 91% 0.01 in 0.00 W/m2
04:19 37.4 °F 35 °F 29.94 in NNE 8 mph 15 mph 91% 0.01 in 0.00 W/m2
04:24 37.3 °F 34.9 °F 29.94 in NNE 12 mph 15 mph 91% 0 in 0.00 W/m2
04:29 37.3 °F 34.9 °F 29.94 in North 10 mph 15 mph 91% 0 in 0.00 W/m2
04:34 37.4 °F 35 °F 29.94 in NNE 8 mph 15 mph 91% 0 in 0.00 W/m2
04:39 37.4 °F 35 °F 29.94 in NNE 8 mph 15 mph 91% 0 in 0.00 W/m2
04:44 37.4 °F 35 °F 29.94 in NNE 9 mph 16 mph 91% 0 in 0.00 W/m2
04:49 37.4 °F 35 °F 29.95 in NNE 7 mph 16 mph 91% 0 in 0.00 W/m2
04:54 37.4 °F 35 °F 29.95 in NNE 12 mph 16 mph 91% 0 in 0.00 W/m2
04:59 37.4 °F 34.7 °F 29.95 in North 11 mph 16 mph 90% 0 in 0.00 W/m2
05:04 37.4 °F 35 °F 29.95 in North 9 mph 14 mph 91% 0 in 0.00 W/m2
05:09 37.4 °F 34.7 °F 29.95 in North 8 mph 14 mph 90% 0 in 0.00 W/m2
05:14 37.4 °F 34.7 °F 29.95 in North 9 mph 14 mph 90% 0 in 0.00 W/m2
05:19 37.3 °F 34.9 °F 29.95 in NNW 8 mph 11 mph 91% 0 in 0.00 W/m2
05:24 37.3 °F 34.9 °F 29.96 in NNW 5 mph 11 mph 91% 0 in 0.00 W/m2
05:29 37.3 °F 34.9 °F 29.96 in NNW 8 mph 11 mph 91% 0 in 0.00 W/m2
05:34 37.3 °F 34.9 °F 29.95 in NNW 8 mph 11 mph 91% 0 in 0.00 W/m2
05:39 37.3 °F 34.9 °F 29.96 in NNW 9 mph 11 mph 91% 0 in 0.00 W/m2
05:44 37.3 °F 34.9 °F 29.96 in NNW 5 mph 12 mph 91% 0 in 0.00 W/m2
05:49 37.3 °F 34.9 °F 29.96 in NNW 6 mph 12 mph 91% 0 in 0.00 W/m2
05:54 37.3 °F 34.9 °F 29.96 in NNW 6 mph 12 mph 91% 0 in 0.00 W/m2
05:59 37.2 °F 34.8 °F 29.96 in NNW 6 mph 12 mph 91% 0 in 0.00 W/m2
06:04 37.3 °F 34.9 °F 29.96 in NNW 8 mph 9 mph 91% 0 in 0.00 W/m2
06:09 37.3 °F 34.9 °F 29.96 in NNW 8 mph 9 mph 91% 0 in 0.00 W/m2
06:14 37.3 °F 34.6 °F 29.96 in NNW 5 mph 9 mph 90% 0 in 0.00 W/m2
06:19 37.3 °F 34.6 °F 29.96 in NNW 5 mph 9 mph 90% 0 in 7.00 W/m2
06:24 37.3 °F 34.6 °F 29.96 in NNW 5 mph 6 mph 90% 0 in 9.00 W/m2
06:29 37.3 °F 34.6 °F 29.97 in NNW 8 mph 9 mph 90% 0 in 11.00 W/m2
06:34 37.3 °F 34.6 °F 29.97 in North 8 mph 11 mph 90% 0 in 11.00 W/m2
06:39 37.3 °F 34.6 °F 29.97 in North 9 mph 13 mph 90% 0 in 12.00 W/m2
06:44 37.4 °F 34.7 °F 29.97 in NNW 9 mph 13 mph 90% 0 in 14.00 W/m2
06:49 37.5 °F 34.8 °F 29.97 in North 10 mph 13 mph 90% 0 in 16.00 W/m2
06:54 37.5 °F 34.6 °F 29.97 in North 8 mph 13 mph 89% 0 in 21.00 W/m2
06:59 37.6 °F 34.7 °F 29.97 in NNW 8 mph 13 mph 89% 0 in 25.00 W/m2
07:04 37.7 °F 34.8 °F 29.97 in NNW 9 mph 13 mph 89% 0 in 30.00 W/m2
07:09 37.9 °F 34.9 °F 29.97 in NNW 9 mph 13 mph 89% 0 in 37.00 W/m2
07:14 37.9 °F 34.7 °F 29.97 in NNW 9 mph 11 mph 88% 0 in 42.00 W/m2
07:19 38.1 °F 34.9 °F 29.97 in NNW 8 mph 10 mph 88% 0 in 51.00 W/m2
07:24 38.3 °F 35.1 °F 29.97 in NNW 8 mph 11 mph 88% 0 in 67.00 W/m2
07:29 38.6 °F 35.4 °F 29.97 in NNW 6 mph 11 mph 88% 0 in 86.00 W/m2
07:34 38.8 °F 35.3 °F 29.98 in NNW 9 mph 15 mph 87% 0 in 95.00 W/m2
07:39 39.1 °F 35.3 °F 29.98 in NNW 11 mph 15 mph 86% 0 in 98.00 W/m2
07:44 39.3 °F 35.5 °F 29.98 in NNW 10 mph 14 mph 86% 0 in 102.00 W/m2
07:49 39.4 °F 35.3 °F 29.98 in NNW 12 mph 14 mph 85% 0 in 93.00 W/m2
07:54 39.6 °F 35.5 °F 29.98 in North 9 mph 14 mph 85% 0 in 93.00 W/m2
07:59 39.6 °F 34.9 °F 29.98 in NNW 6 mph 14 mph 83% 0 in 97.00 W/m2
08:04 39.7 °F 35 °F 29.98 in North 11 mph 14 mph 83% 0 in 105.00 W/m2
08:09 39.8 °F 34.8 °F 29.98 in NNW 9 mph 14 mph 82% 0 in 111.00 W/m2
08:14 40 °F 34.9 °F 29.98 in North 8 mph 15 mph 82% 0 in 128.00 W/m2
08:19 40.1 °F 35 °F 29.98 in North 10 mph 16 mph 82% 0 in 149.00 W/m2
08:24 40.3 °F 35.2 °F 29.98 in North 12 mph 16 mph 82% 0 in 165.00 W/m2
08:29 40.6 °F 35.5 °F 29.98 in North 8 mph 16 mph 82% 0 in 178.00 W/m2
08:34 40.7 °F 35.3 °F 29.98 in North 8 mph 17 mph 81% 0 in 169.00 W/m2
08:39 40.8 °F 35.1 °F 29.99 in North 15 mph 17 mph 80% 0 in 167.00 W/m2
08:44 40.9 °F 35.2 °F 29.98 in North 14 mph 18 mph 80% 0 in 181.00 W/m2
08:49 40.9 °F 34.6 °F 29.98 in North 11 mph 21 mph 78% 0 in 183.00 W/m2
08:54 41.1 °F 35.1 °F 29.98 in North 19 mph 21 mph 79% 0 in 195.00 W/m2
08:59 41.1 °F 34.8 °F 29.98 in North 14 mph 21 mph 78% 0 in 202.00 W/m2
09:04 41.3 °F 34.6 °F 29.99 in North 11 mph 21 mph 77% 0 in 209.00 W/m2
09:09 41.4 °F 34.4 °F 29.99 in NNE 16 mph 20 mph 76% 0 in 216.00 W/m2
09:14 41.5 °F 34.5 °F 29.99 in North 16 mph 21 mph 76% 0 in 207.00 W/m2
09:19 41.4 °F 33.7 °F 29.99 in North 16 mph 22 mph 74% 0 in 207.00 W/m2
09:24 41.5 °F 34.2 °F 29.99 in NNE 14 mph 22 mph 75% 0 in 202.00 W/m2
09:29 41.5 °F 33.8 °F 29.99 in North 11 mph 22 mph 74% 0 in 206.00 W/m2
09:34 41.5 °F 33.8 °F 29.99 in North 11 mph 22 mph 74% 0 in 206.00 W/m2
09:39 41.6 °F 33.9 °F 29.99 in North 13 mph 22 mph 74% 0 in 204.00 W/m2
09:44 41.5 °F 33.5 °F 29.99 in NNE 11 mph 21 mph 73% 0 in 213.00 W/m2
09:49 41.6 °F 33.9 °F 29.99 in NNE 20 mph 21 mph 74% 0 in 216.00 W/m2
09:54 41.6 °F 33.2 °F 30.00 in North 13 mph 21 mph 72% 0 in 213.00 W/m2
09:59 41.6 °F 33.2 °F 30.00 in NNE 15 mph 21 mph 72% 0 in 209.00 W/m2
10:04 41.7 °F 33.7 °F 30.00 in NNE 18 mph 21 mph 73% 0 in 207.00 W/m2
10:09 41.8 °F 33.8 °F 30.00 in North 12 mph 19 mph 73% 0 in 213.00 W/m2
10:14 41.9 °F 33.9 °F 30.00 in North 14 mph 19 mph 73% 0 in 223.00 W/m2
10:19 42.1 °F 34.4 °F 30.00 in North 16 mph 19 mph 74% 0 in 234.00 W/m2
10:24 42.2 °F 34.2 °F 30.00 in NNE 16 mph 20 mph 73% 0 in 244.00 W/m2
10:29 42.2 °F 33.8 °F 30.00 in NNE 11 mph 20 mph 72% 0 in 251.00 W/m2
10:34 42.4 °F 34 °F 30.00 in NNE 17 mph 18 mph 72% 0 in 267.00 W/m2
10:39 42.5 °F 34.1 °F 30.00 in North 16 mph 19 mph 72% 0 in 278.00 W/m2
10:44 42.8 °F 34.7 °F 30.00 in North 12 mph 20 mph 73% 0 in 288.00 W/m2
10:49 43.1 °F 34.7 °F 30.00 in NNW 10 mph 20 mph 72% 0 in 304.00 W/m2
10:54 43.2 °F 34.8 °F 30.00 in North 16 mph 20 mph 72% 0 in 323.00 W/m2
10:59 43.5 °F 35.1 °F 30.00 in NNE 16 mph 20 mph 72% 0 in 346.00 W/m2
11:04 43.6 °F 34.8 °F 30.00 in North 16 mph 18 mph 71% 0 in 366.00 W/m2
11:09 44 °F 35.2 °F 30.00 in North 9 mph 17 mph 71% 0 in 397.00 W/m2
11:14 44.4 °F 35.6 °F 30.00 in North 11 mph 17 mph 71% 0 in 434.00 W/m2
11:19 44.7 °F 35.5 °F 30.00 in North 15 mph 18 mph 70% 0 in 454.00 W/m2
11:24 45 °F 35.4 °F 30.00 in North 11 mph 18 mph 69% 0 in 424.00 W/m2
11:29 45.1 °F 35.2 °F 30.00 in North 16 mph 22 mph 68% 0 in 411.00 W/m2
11:34 45 °F 35.1 °F 30.01 in North 17 mph 22 mph 68% 0 in 392.00 W/m2
11:39 44.9 °F 34.6 °F 30.01 in North 13 mph 22 mph 67% 0 in 373.00 W/m2
11:44 45 °F 35.1 °F 30.01 in NNE 15 mph 22 mph 68% 0 in 371.00 W/m2
11:49 45 °F 34.7 °F 30.01 in NNE 16 mph 21 mph 67% 0 in 367.00 W/m2
11:54 45 °F 34.7 °F 30.01 in NNE 12 mph 21 mph 67% 0 in 353.00 W/m2
11:59 45.2 °F 35.3 °F 30.00 in North 20 mph 20 mph 68% 0 in 350.00 W/m2
12:04 45.2 °F 34.9 °F 30.01 in North 16 mph 21 mph 67% 0 in 346.00 W/m2
12:09 45.3 °F 35 °F 30.00 in NNE 15 mph 21 mph 67% 0 in 352.00 W/m2
12:14 45.6 °F 35.3 °F 30.00 in North 12 mph 21 mph 67% 0 in 369.00 W/m2
12:19 45.8 °F 35.1 °F 30.00 in NNE 13 mph 21 mph 66% 0 in 366.00 W/m2
12:24 46 °F 35.3 °F 30.00 in NNE 14 mph 21 mph 66% 0 in 352.00 W/m2
12:29 46 °F 35.3 °F 30.00 in North 13 mph 22 mph 66% 0 in 343.00 W/m2
12:34 45.9 °F 34.8 °F 30.00 in North 19 mph 22 mph 65% 0 in 348.00 W/m2
12:39 46.1 °F 35.7 °F 30.00 in North 15 mph 20 mph 67% 0 in 357.00 W/m2
12:44 46.4 °F 35.7 °F 30.00 in North 13 mph 21 mph 66% 0 in 369.00 W/m2
12:49 46.8 °F 35.6 °F 30.00 in North 12 mph 21 mph 65% 0 in 388.00 W/m2
12:54 47.2 °F 36.4 °F 30.00 in NNE 10 mph 20 mph 66% 0 in 413.00 W/m2
12:59 47.6 °F 36 °F 30.00 in NE 11 mph 21 mph 64% 0 in 418.00 W/m2
13:04 47.7 °F 36.1 °F 30.00 in NNE 10 mph 21 mph 64% 0 in 420.00 W/m2
13:09 47.8 °F 34.6 °F 30.00 in NNE 11 mph 20 mph 60% 0 in 450.00 W/m2
13:14 48.1 °F 35.7 °F 30.00 in NNE 11 mph 20 mph 62% 0 in 473.00 W/m2
13:19 48.7 °F 36.7 °F 30.00 in NNE 6 mph 20 mph 63% 0 in 490.00 W/m2
13:24 48.7 °F 35 °F 30.00 in NE 10 mph 20 mph 59% 0 in 471.00 W/m2
13:29 48.9 °F 36.4 °F 30.00 in NNW 10 mph 19 mph 62% 0 in 473.00 W/m2
13:34 49.1 °F 36.2 °F 30.00 in NE 10 mph 20 mph 61% 0 in 492.00 W/m2
13:39 49.5 °F 36.2 °F 30.00 in NNE 15 mph 20 mph 60% 0 in 524.00 W/m2
13:44 49.2 °F 34.2 °F 29.99 in NE 13 mph 20 mph 56% 0 in 473.00 W/m2
13:49 49.4 °F 35.7 °F 30.00 in NE 15 mph 19 mph 59% 0 in 466.00 W/m2
13:54 49.5 °F 36.2 °F 30.00 in NE 9 mph 20 mph 60% 0 in 454.00 W/m2
13:59 49.5 °F 34.9 °F 30.00 in North 19 mph 21 mph 57% 0 in 432.00 W/m2
14:04 49.2 °F 34.6 °F 30.00 in NE 16 mph 21 mph 57% 0 in 406.00 W/m2
14:09 49 °F 34.9 °F 30.00 in NE 10 mph 21 mph 58% 0 in 381.00 W/m2
14:14 49.1 °F 35.8 °F 30.00 in North 13 mph 21 mph 60% 0 in 353.00 W/m2
14:19 49 °F 35.3 °F 30.00 in North 11 mph 19 mph 59% 0 in 343.00 W/m2
14:24 48.9 °F 35.6 °F 30.00 in NNE 18 mph 20 mph 60% 0 in 339.00 W/m2
14:29 48.8 °F 35.1 °F 30.00 in NNE 8 mph 20 mph 59% 0 in 332.00 W/m2
14:34 48.8 °F 35.1 °F 30.00 in NNE 13 mph 20 mph 59% 0 in 320.00 W/m2
14:39 48.7 °F 35.4 °F 30.00 in North 16 mph 20 mph 60% 0 in 318.00 W/m2
14:44 48.7 °F 35 °F 30.00 in NNE 14 mph 19 mph 59% 0 in 318.00 W/m2
14:49 48.7 °F 35.4 °F 30.00 in NNE 16 mph 19 mph 60% 0 in 318.00 W/m2
14:54 48.7 °F 35 °F 30.00 in North 13 mph 19 mph 59% 0 in 327.00 W/m2
14:59 48.8 °F 35.5 °F 29.99 in NNE 14 mph 19 mph 60% 0 in 322.00 W/m2
15:04 49.1 °F 36.2 °F 30.00 in NNE 16 mph 19 mph 61% 0 in 299.00 W/m2
15:09 49 °F 35.7 °F 30.00 in NNE 14 mph 19 mph 60% 0 in 281.00 W/m2
15:14 49.2 °F 36.3 °F 30.00 in NNE 8 mph 19 mph 61% 0 in 272.00 W/m2
15:19 49.2 °F 35.5 °F 30.00 in NNE 8 mph 15 mph 59% 0 in 244.00 W/m2
15:24 49.1 °F 34.9 °F 30.00 in NE 12 mph 16 mph 58% 0 in 232.00 W/m2
15:29 48.8 °F 34.2 °F 30.00 in NE 10 mph 16 mph 57% 0 in 227.00 W/m2
15:34 48.7 °F 35 °F 30.00 in NE 13 mph 15 mph 59% 0 in 214.00 W/m2
15:39 48.6 °F 34.5 °F 30.00 in NE 11 mph 15 mph 58% 0 in 223.00 W/m2
15:44 48.5 °F 33.9 °F 30.00 in NE 7 mph 15 mph 57% 0 in 225.00 W/m2
15:49 48.4 °F 34.3 °F 30.00 in NE 12 mph 15 mph 58% 0 in 214.00 W/m2
15:54 48.5 °F 33.9 °F 30.00 in NE 11 mph 13 mph 57% 0 in 218.00 W/m2
15:59 48.4 °F 33.4 °F 30.00 in East 4 mph 13 mph 56% 0 in 218.00 W/m2
16:04 48.4 °F 33.4 °F 30.00 in NE 10 mph 13 mph 56% 0 in 213.00 W/m2
16:09 48.5 °F 33.9 °F 30.00 in NE 10 mph 13 mph 57% 0 in 214.00 W/m2
16:14 48.6 °F 34 °F 30.00 in ENE 11 mph 17 mph 57% 0 in 218.00 W/m2
16:19 48.6 °F 34 °F 30.00 in NE 10 mph 17 mph 57% 0 in 213.00 W/m2
16:24 48.7 °F 33.7 °F 30.00 in NE 7 mph 17 mph 56% 0 in 213.00 W/m2
16:29 48.7 °F 34.1 °F 30.00 in NE 7 mph 17 mph 57% 0 in 220.00 W/m2
16:34 48.7 °F 34.1 °F 30.00 in ENE 10 mph 16 mph 57% 0 in 229.00 W/m2
16:39 48.8 °F 33.8 °F 30.00 in NNE 10 mph 15 mph 56% 0 in 225.00 W/m2
16:44 48.8 °F 34.2 °F 30.00 in NE 11 mph 15 mph 57% 0 in 229.00 W/m2
16:49 48.8 °F 34.2 °F 30.00 in NE 15 mph 16 mph 57% 0 in 227.00 W/m2
16:54 48.8 °F 33.8 °F 30.00 in NE 11 mph 16 mph 56% 0 in 227.00 W/m2
16:59 48.9 °F 34.3 °F 29.99 in NE 5 mph 14 mph 57% 0 in 225.00 W/m2
17:04 49.1 °F 34.9 °F 29.99 in NE 10 mph 16 mph 58% 0 in 220.00 W/m2
17:09 49.2 °F 34.6 °F 29.99 in ENE 6 mph 16 mph 57% 0 in 211.00 W/m2
17:14 49.2 °F 34.6 °F 29.99 in NE 7 mph 13 mph 57% 0 in 209.00 W/m2
17:19 49.2 °F 34.6 °F 29.99 in NE 6 mph 13 mph 57% 0 in 192.00 W/m2
17:24 49.3 °F 34.7 °F 29.99 in NE 5 mph 13 mph 57% 0 in 183.00 W/m2
17:29 49.3 °F 33.3 °F 29.99 in NE 11 mph 13 mph 54% 0 in 183.00 W/m2
17:34 49.2 °F 32.8 °F 29.98 in NE 9 mph 13 mph 53% 0 in 179.00 W/m2
17:39 49.2 °F 33.7 °F 29.98 in NE 6 mph 13 mph 55% 0 in 169.00 W/m2
17:44 49.2 °F 33.7 °F 29.98 in ENE 4 mph 13 mph 55% 0 in 162.00 W/m2
17:49 49 °F 33.5 °F 29.99 in ENE 4 mph 13 mph 55% 0 in 151.00 W/m2
17:54 49 °F 34 °F 29.99 in ENE 7 mph 13 mph 56% 0 in 141.00 W/m2
17:59 48.8 °F 32.4 °F 29.99 in ENE 6 mph 12 mph 53% 0 in 139.00 W/m2
18:04 48.8 °F 32.4 °F 29.99 in ENE 4 mph 10 mph 53% 0 in 135.00 W/m2
18:09 48.8 °F 32.4 °F 29.99 in NE 2 mph 9 mph 53% 0 in 134.00 W/m2
18:14 48.9 °F 31.5 °F 29.99 in ENE 6 mph 10 mph 51% 0 in 125.00 W/m2
18:19 48.8 °F 31.9 °F 29.99 in NE 5 mph 10 mph 52% 0 in 116.00 W/m2
18:24 48.8 °F 31.5 °F 29.99 in ENE 5 mph 12 mph 51% 0 in 107.00 W/m2
18:29 48.8 °F 31.5 °F 29.99 in NE 2 mph 12 mph 51% 0 in 102.00 W/m2
18:34 48.8 °F 32.9 °F 29.99 in ENE 2 mph 10 mph 54% 0 in 98.00 W/m2
18:39 48.8 °F 32.4 °F 29.99 in East 4 mph 10 mph 53% 0 in 93.00 W/m2
18:44 48.8 °F 32.4 °F 29.99 in East 1 mph 10 mph 53% 0 in 90.00 W/m2
18:49 48.8 °F 32.4 °F 29.99 in ENE 3 mph 6 mph 53% 0 in 91.00 W/m2
18:54 48.7 °F 31.4 °F 29.99 in ENE 4 mph 6 mph 51% 0 in 84.00 W/m2
18:59 48.7 °F 30.9 °F 29.99 in ENE 2 mph 5 mph 50% 0 in 83.00 W/m2
19:04 48.7 °F 32.8 °F 29.99 in ENE 2 mph 4 mph 54% 0 in 74.00 W/m2
19:09 48.5 °F 32.1 °F 29.99 in East 2 mph 4 mph 53% 0 in 70.00 W/m2
19:14 48.5 °F 33.5 °F 29.99 in ESE 3 mph 4 mph 56% 0 in 67.00 W/m2
19:19 48.4 °F 33.9 °F 29.99 in Calm   4 mph 57% 0 in 69.00 W/m2
19:24 48.3 °F 33.8 °F 29.99 in ESE 1 mph 4 mph 57% 0 in 76.00 W/m2
19:29 48.2 °F 33.2 °F 29.99 in SE 2 mph 4 mph 56% 0 in 81.00 W/m2
19:34 48.1 °F 33.6 °F 29.99 in SE 2 mph 4 mph 57% 0 in 77.00 W/m2
19:39 48.1 °F 33.6 °F 29.99 in SE 1 mph 4 mph 57% 0 in 70.00 W/m2
19:44 48.1 °F 34.4 °F 29.99 in Calm   4 mph 59% 0 in 63.00 W/m2
19:49 48 °F 34.8 °F 29.99 in Calm   2 mph 60% 0 in 62.00 W/m2
19:54 48 °F 34.8 °F 29.99 in SE 1 mph 3 mph 60% 0 in 58.00 W/m2
19:59 47.9 °F 35.5 °F 29.99 in SE 3 mph 3 mph 62% 0 in 47.00 W/m2
20:04 47.8 °F 35 °F 29.99 in SE 2 mph 3 mph 61% 0 in 40.00 W/m2
20:09 47.7 °F 35.3 °F 29.99 in SE 2 mph 3 mph 62% 0 in 33.00 W/m2
20:14 47.6 °F 35.6 °F 29.99 in SE 2 mph 3 mph 63% 0 in 30.00 W/m2
20:19 47.5 °F 35.1 °F 29.99 in SE 2 mph 3 mph 62% 0 in 26.00 W/m2
20:24 47.4 °F 35 °F 29.99 in SE 2 mph 4 mph 62% 0 in 25.00 W/m2
20:29 47.3 °F 34.9 °F 29.99 in SE 1 mph 4 mph 62% 0 in 21.00 W/m2
20:34 47.2 °F 35.2 °F 30.00 in SE 3 mph 4 mph 63% 0 in 18.00 W/m2
20:39 47.1 °F 35.5 °F 30.00 in SSE 3 mph 4 mph 64% 0 in 14.00 W/m2
20:44 46.9 °F 35.4 °F 30.00 in SSW 4 mph 7 mph 64% 0 in 12.00 W/m2
20:49 46.6 °F 35.8 °F 30.00 in SSW 5 mph 7 mph 66% 0 in 9.00 W/m2
20:54 46.4 °F 36 °F 30.00 in SSW 6 mph 8 mph 67% 0 in 7.00 W/m2
20:59 46.2 °F 35.8 °F 30.00 in SSW 4 mph 8 mph 67% 0 in 5.00 W/m2
21:04 45.9 °F 35.9 °F 30.00 in SSW 5 mph 7 mph 68% 0 in 5.00 W/m2
21:09 45.8 °F 35.8 °F 30.01 in SSW 5 mph 7 mph 68% 0 in 0.00 W/m2
21:14 45.7 °F 35.7 °F 30.01 in SSW 6 mph 7 mph 68% 0 in 0.00 W/m2
21:19 45.5 °F 35.9 °F 30.01 in SSW 5 mph 7 mph 69% 0 in 0.00 W/m2
21:24 45.4 °F 35.8 °F 30.01 in SSW 4 mph 6 mph 69% 0 in 0.00 W/m2
21:29 45.3 °F 35.7 °F 30.01 in SSW 3 mph 6 mph 69% 0 in 0.00 W/m2
21:34 45.2 °F 35.6 °F 30.01 in SW 3 mph 5 mph 69% 0 in 0.00 W/m2
21:39 45.2 °F 36 °F 30.01 in SSW 3 mph 5 mph 70% 0 in 0.00 W/m2
21:44 45.1 °F 35.9 °F 30.02 in SW 4 mph 4 mph 70% 0 in 0.00 W/m2
21:49 44.9 °F 36.1 °F 30.02 in SW 3 mph 4 mph 71% 0 in 0.00 W/m2
21:54 44.6 °F 36.1 °F 30.02 in SW 3 mph 4 mph 72% 0 in 0.00 W/m2
21:59 44.4 °F 35.9 °F 30.02 in SW 2 mph 4 mph 72% 0 in 0.00 W/m2
22:04 44.3 °F 35.8 °F 30.02 in SW 3 mph 5 mph 72% 0 in 0.00 W/m2
22:09 44.2 °F 36.1 °F 30.03 in SSW 3 mph 5 mph 73% 0 in 0.00 W/m2
22:14 44.1 °F 36 °F 30.03 in SW 2 mph 5 mph 73% 0 in 0.00 W/m2
22:19 43.9 °F 35.8 °F 30.03 in SW 3 mph 4 mph 73% 0 in 0.00 W/m2
22:24 43.8 °F 36 °F 30.03 in SW 3 mph 5 mph 74% 0 in 0.00 W/m2
22:29 43.8 °F 36 °F 30.03 in SW 2 mph 4 mph 74% 0 in 0.00 W/m2
22:34 43.7 °F 36 °F 30.03 in SW 2 mph 4 mph 74% 0 in 0.00 W/m2
22:39 43.5 °F 35.8 °F 30.04 in SW 2 mph 3 mph 74% 0 in 0.00 W/m2
22:44 43.5 °F 36.1 °F 30.04 in SW 3 mph 4 mph 75% 0 in 0.00 W/m2
22:49 43.4 °F 36 °F 30.04 in SW 2 mph 4 mph 75% 0 in 0.00 W/m2
22:54 43.3 °F 35.9 °F 30.04 in WSW 3 mph 4 mph 75% 0 in 0.00 W/m2
22:59 43.1 °F 36 °F 30.05 in WSW 3 mph 5 mph 76% 0 in 0.00 W/m2
23:04 42.8 °F 35.8 °F 30.05 in WSW 5 mph 5 mph 76% 0 in 0.00 W/m2
23:09 42.5 °F 35.8 °F 30.05 in WSW 5 mph 7 mph 77% 0 in 0.00 W/m2
23:14 42.4 °F 35.7 °F 30.05 in WSW 4 mph 7 mph 77% 0 in 0.00 W/m2
23:19 42.2 °F 35.5 °F 30.05 in WSW 4 mph 7 mph 77% 0 in 0.00 W/m2
23:24 42 °F 35.6 °F 30.05 in WSW 4 mph 5 mph 78% 0 in 0.00 W/m2
23:29 41.8 °F 35.4 °F 30.05 in WSW 4 mph 5 mph 78% 0 in 0.00 W/m2
23:34 41.6 °F 35.2 °F 30.05 in WSW 3 mph 5 mph 78% 0 in 0.00 W/m2
23:39 41.5 °F 35.2 °F 30.05 in WSW 3 mph 5 mph 78% 0 in 0.00 W/m2
23:44 41.5 °F 35.2 °F 30.05 in WSW 3 mph 5 mph 78% 0 in 0.00 W/m2
23:49 41.4 °F 35.1 °F 30.05 in WSW 3 mph 4 mph 78% 0 in 0.00 W/m2
23:54 41.2 °F 35.2 °F 30.05 in WSW 3 mph 4 mph 79% 0 in 0.00 W/m2
23:59 41.1 °F 35.1 °F 30.05 in West 6 mph 6 mph 79% 0 in 0.00 W/m2
Bismarck, North Dakota, USA
Compliments of Weather Underground - 4 mb